Time;durP1;ratioP1;P1;durP2;ratioP2;P2;SDS_P1;SDS_P2;PMS_P1;PMS_P2;Temp;Humidity;BMP_temperature;BMP_pressure;BME280_temperature;BME280_humidity;BME280_pressure;Samples;Min_cycle;Max_cycle;Signal;HPM_P1;HPM_P2
2022/08/20 00:00:13;;;;;;;6.95;4.08;;;;;;;21.76;100.00;97814.97;1709136;81;28122;-87
2022/08/20 00:02:53;;;;;;;;;;;;;;;21.81;100.00;97819.21;1701248;81;28088;-87
2022/08/20 00:05:22;;;;;;;7.80;3.90;;;;;;;21.90;100.00;97828.70;1708429;82;20776;-88
2022/08/20 00:07:48;;;;;;;;;;;;;;;21.97;100.00;97823.78;1710856;80;25573;-88
2022/08/20 00:10:14;;;;;;;;;;;;;;;21.98;100.00;97820.61;1646867;84;20314;-88
2022/08/20 00:12:42;;;;;;;;;;;;;;;21.89;100.00;97817.72;1655313;84;20881;-87
2022/08/20 00:15:08;;;;;;;;;;;;;;;21.79;100.00;97819.39;1631286;84;24392;-87
2022/08/20 00:17:37;;;;;;;;;;;;;;;21.78;100.00;97827.06;1673260;83;20523;-88
2022/08/20 00:20:08;;;;;;;;;;;;;;;21.86;100.00;97835.44;1667122;84;24968;-88
2022/08/20 00:22:34;;;;;;;;;;;;;;;21.91;100.00;97832.52;1640855;85;22858;-88
2022/08/20 00:25:00;;;;;;;;;;;;;;;21.95;100.00;97818.31;1667375;84;26025;-85
2022/08/20 00:27:26;;;;;;;;;;;;;;;22.01;100.00;97806.88;1660454;83;24859;-85
2022/08/20 00:29:52;;;;;;;;;;;;;;;22.05;100.00;97794.81;1671424;83;20349;-87
2022/08/20 00:32:18;;;;;;;;;;;;;;;22.00;100.00;97789.24;1674686;83;20833;-86
2022/08/20 00:34:45;;;;;;;;;;;;;;;21.90;100.00;97783.41;1656556;84;20246;-88
2022/08/20 00:37:14;;;;;;;;;;;;;;;21.84;100.00;97777.02;1656585;85;26112;-87
2022/08/20 00:39:41;;;;;;;;;;;;;;;21.75;100.00;97784.02;1654887;84;24568;-85
2022/08/20 00:42:07;;;;;;;;;;;;;;;21.58;100.00;97792.80;1672954;84;20318;-87
2022/08/20 00:44:33;;;;;;;;;;;;;;;21.44;100.00;97824.33;1679077;84;25454;-88
2022/08/20 00:46:59;;;;;;;;;;;;;;;21.40;100.00;97839.84;1667333;84;22102;-88
2022/08/20 00:49:27;;;;;;;;;;;;;;;21.36;100.00;97828.43;1668518;84;21815;-89
2022/08/20 00:52:04;;;;;;;;;;;;;;;21.34;100.00;97827.78;1667768;84;24071;-87
2022/08/20 00:54:34;;;;;;;;;;;;;;;21.32;100.00;97819.18;1666414;84;20249;-89
2022/08/20 00:57:02;;;;;;;;;;;;;;;21.47;100.00;97811.95;1669398;84;25261;-89
2022/08/20 00:59:33;;;;;;;;;;;;;;;21.54;100.00;97811.00;1670359;83;21994;-88
2022/08/20 01:02:04;;;;;;;;;;;;;;;21.65;100.00;97803.83;1684529;84;25467;-88
2022/08/20 01:04:36;;;;;;;;;;;;;;;21.76;100.00;97797.16;1670765;82;25393;-88
2022/08/20 01:07:04;;;;;;;;;;;;;;;21.84;100.00;97788.17;1673905;84;20294;-87
2022/08/20 01:09:31;;;;;;;;;;;;;;;21.82;100.00;97776.37;1670807;84;25854;-87
2022/08/20 01:11:56;;;;;;;;;;;;;;;21.80;100.00;97770.94;1666641;84;21982;-87
2022/08/20 01:17:01;;;;;;;;;;;;;;;21.64;100.00;97769.39;1678460;84;24303;-88
2022/08/20 01:19:52;;;;;;;;;;;;;;;21.47;100.00;97751.54;1681061;84;20217;-88
2022/08/20 01:25:07;;;;;;;;;;;;;;;21.24;100.00;97750.92;1689275;83;22062;-88
2022/08/20 01:27:34;;;;;;;;;;;;;;;21.21;100.00;97764.12;1669626;83;26207;-89
2022/08/20 01:30:15;;;;;;;;;;;;;;;21.25;100.00;97769.88;1706599;82;25202;-89
2022/08/20 01:32:41;;;;;;;;;;;;;;;21.27;100.00;97769.98;1664669;84;20406;-90
2022/08/20 01:35:07;;;;;;;;;;;;;;;21.28;100.00;97782.28;1695095;82;20718;-89
2022/08/20 01:37:33;;;;;;;;;;;;;;;21.30;100.00;97783.43;1647235;83;21972;-89
2022/08/20 01:40:05;;;;;;;;;;;;;;;21.34;100.00;97770.55;1702730;81;21839;-88
2022/08/20 01:42:33;;;;;;;;;;;;;;;21.29;100.00;97757.31;1712334;81;24665;-89
2022/08/20 01:44:59;;;;;;;;;;;;;;;21.28;100.00;97766.81;1696703;82;20411;-86
2022/08/20 01:47:27;;;;;;;;;;;;;;;21.40;100.00;97763.13;1696981;81;20620;-89
2022/08/20 01:49:58;;;;;;;;;;;;;;;21.57;100.00;97773.33;1702111;81;23074;-86
2022/08/20 01:52:40;;;;;;;;;;;;;;;21.74;100.00;97779.20;1717783;82;26695;-89
2022/08/20 01:55:06;;;;;;;;;;;;;;;21.83;100.00;97786.02;1724198;81;25458;-86
2022/08/20 01:57:33;;;;;;;;;;;;;;;21.80;100.00;97785.09;1701692;81;20223;-86
2022/08/20 02:00:15;;;;;;;;;;;;;;;21.69;100.00;97778.95;1718938;81;25207;-89
2022/08/20 02:02:41;;;;;;;;;;;;;;;21.62;100.00;97780.23;1695998;82;22245;-89
2022/08/20 02:05:07;;;;;;;;;;;;;;;21.54;100.00;97782.22;1722013;81;21716;-86
2022/08/20 02:07:33;;;;;;;;;;;;;;;21.55;100.00;97791.83;1710235;82;24450;-88
2022/08/20 02:10:00;;;;;;;;;;;;;;;21.65;100.00;97801.67;1714860;81;20317;-85
2022/08/20 02:12:26;;;;;;;;;;;;;;;21.75;100.00;97801.33;1695964;82;25002;-85
2022/08/20 02:14:53;;;;;;;;;;;;;;;21.76;100.00;97799.81;1707130;82;20272;-87
2022/08/20 02:17:21;;;;;;;;;;;;;;;21.74;100.00;97796.52;1689708;82;26096;-87
2022/08/20 02:19:49;;;;;;;;;;;;;;;21.85;100.00;97809.30;1714438;81;24506;-87
2022/08/20 02:22:17;;;;;;;;;;;;;;;21.94;100.00;97817.48;1728572;81;20315;-88
2022/08/20 02:24:43;;;;;;;;;;;;;;;21.99;100.00;97807.07;1700475;82;25097;-87
2022/08/20 02:27:08;;;;;;;;;;;;;;;22.03;100.00;97813.68;1718016;81;20346;-87
2022/08/20 02:29:36;;;;;;;;;;;;;;;21.99;100.00;97811.06;1714121;81;21741;-87
2022/08/20 02:32:05;;;;;;;;;;;;;;;21.84;100.00;97804.16;1715271;81;24501;-88
2022/08/20 02:34:33;;;;;;;;;;;;;;;21.61;100.00;97802.55;1701825;81;20218;-88
2022/08/20 02:37:15;;;;;;;;;;;;;;;21.45;100.00;97800.66;1694741;82;25661;-88
2022/08/20 02:39:39;;;;;;;;;;;;;;;21.36;100.00;97803.97;1693642;82;22644;-88
2022/08/20 02:42:05;;;;;;;;;;;;;;;21.47;100.00;97807.45;1695422;81;25632;-88
2022/08/20 02:44:31;;;;;;;;;;;;;;;21.63;100.00;97809.84;1696521;81;20246;-86
2022/08/20 02:46:58;;;;;;;;;;;;;;;21.66;100.00;97825.94;1690587;81;20316;-87
2022/08/20 02:49:24;;;;;;;;;;;;;;;21.62;100.00;97832.66;1719171;81;25059;-87
2022/08/20 02:51:50;;;;;;;;;;;;;;;21.57;100.00;97825.77;1706183;81;20223;-87
2022/08/20 02:54:16;;;;;;;;;;;;;;;21.50;100.00;97808.89;1707727;81;21177;-89
2022/08/20 02:56:42;;;;;;;;;;;;;;;21.32;100.00;97790.73;1704455;82;24441;-86
2022/08/20 02:59:08;;;;;;;;;;;;;;;21.12;100.00;97793.14;1718276;81;20406;-89
2022/08/20 03:01:35;;;;;;;;;;;;;;;21.11;100.00;97805.33;1694539;81;26133;-86
2022/08/20 03:04:01;;;;;;;;;;;;;;;21.22;100.00;97803.53;1680828;82;22084;-87
2022/08/20 03:06:33;;;;;;;;;;;;;;;21.19;100.00;97802.06;1690300;82;26243;-88
2022/08/20 03:08:57;;;;;;;;;;;;;;;21.15;100.00;97795.47;1695455;82;24550;-89
2022/08/20 03:11:23;;;;;;;;;;;;;;;21.14;100.00;97787.17;1706652;81;20357;-89
2022/08/20 03:13:48;;;;;;;;;;;;;;;21.13;100.00;97789.98;1713546;82;20793;-86
2022/08/20 03:16:15;;;;;;;;;;;;;;;21.12;100.00;97788.33;1685079;82;22130;-86
2022/08/20 03:18:42;;;;;;;;;;;;;;;21.14;100.00;97782.32;1688702;82;22472;-89
2022/08/20 03:21:09;;;;;;;;;;;;;;;21.13;100.00;97769.52;1691209;81;24664;-89
2022/08/20 03:23:35;;;;;;;;;;;;;;;21.14;100.00;97769.88;1704027;81;20224;-86
2022/08/20 03:26:02;;;;;;;;;;;;;;;21.27;100.00;97773.97;1709468;81;24991;-88
2022/08/20 03:28:28;;;;;;;;;;;;;;;21.45;100.00;97762.05;1696886;82;22262;-88
2022/08/20 03:30:59;;;;;;;;;;;;;;;21.57;100.00;97761.85;1695882;82;21098;-89
2022/08/20 03:33:41;;;;;;;;;;;;;;;21.65;100.00;97759.06;1699417;81;25221;-89
2022/08/20 03:36:07;;;;;;;;;;;;;;;21.67;100.00;97770.33;1720936;81;20709;-88
2022/08/20 03:38:32;;;;;;;;;;;;;;;21.57;100.00;97756.52;1708728;81;20433;-88
2022/08/20 03:40:59;;;;;;;;;;;;;;;21.55;100.00;97759.38;1689668;82;20329;-86
2022/08/20 03:43:25;;;;;;;;;;;;;;;21.66;100.00;97759.35;1658455;83;26268;-88
2022/08/20 03:45:51;;;;;;;;;;;;;;;21.71;100.00;97755.09;1648919;84;21127;-87
2022/08/20 03:48:24;;;;;;;;;;;;;;;21.76;100.00;97750.54;1633647;85;20338;-87
2022/08/20 03:50:57;;;;;;;;;;;;;;;21.79;100.00;97749.31;1653727;85;24919;-89
2022/08/20 03:53:30;;;;;;;;;;;;;;;21.80;100.00;97754.45;1654873;85;22194;-88
2022/08/20 03:55:59;;;;;;;;;;;;;;;21.79;100.00;97759.46;1664140;83;26884;-88
2022/08/20 03:58:28;;;;;;;;;;;;;;;21.81;100.00;97760.61;1678586;83;24550;-88
2022/08/20 04:00:54;;;;;;;;;;;;;;;21.72;100.00;97755.91;1666052;83;22084;-88
2022/08/20 04:03:21;;;;;;;;;;;;;;;21.56;100.00;97753.55;1667407;83;24813;-86
2022/08/20 04:05:48;;;;;;;;;;;;;;;21.41;100.00;97744.31;1681356;84;22267;-88
2022/08/20 04:08:15;;;;;;;;;;;;;;;21.29;100.00;97740.02;1661871;84;26738;-88
2022/08/20 04:10:45;;;;;;;;;;;;;;;21.19;100.00;97732.87;1674953;83;22426;-88
2022/08/20 04:13:16;;;;;;;;;;;;;;;21.15;100.00;97736.93;1678330;83;20240;-89
2022/08/20 04:15:40;;;;;;;;;;;;;;;21.19;100.00;97731.53;1678072;83;25006;-88
2022/08/20 04:18:09;;;;;;;;;;;;;;;21.16;100.00;97731.11;1662809;83;22036;-89
2022/08/20 04:20:35;;;;;;;;;;;;;;;21.15;100.00;97724.95;1672868;84;21115;-86
2022/08/20 04:23:04;;;;;;;;;;;;;;;21.23;100.00;97734.63;1655678;84;24515;-86
2022/08/20 04:25:34;;;;;;;;;;;;;;;21.36;100.00;97735.26;1640051;85;20544;-87
2022/08/20 04:28:02;;;;;;;;;;;;;;;21.45;100.00;97739.42;1652218;85;24973;-88
2022/08/20 04:30:28;;;;;;;;;;;;;;;21.54;100.00;97732.45;1653175;84;22166;-87
2022/08/20 04:32:54;;;;;;;;;;;;;;;21.61;100.00;97731.14;1630613;86;26274;-87
2022/08/20 04:35:23;;;;;;;;;;;;;;;21.66;100.00;97738.88;1695039;82;24707;-87
2022/08/20 04:37:51;;;;;;;;;;;;;;;21.65;100.00;97731.09;1679570;83;20233;-87
2022/08/20 04:43:12;;;;;;;;;;;;;;;21.68;100.00;97730.70;1719498;81;22045;-87
2022/08/20 04:45:39;;;;;;;;;;;;;;;21.67;100.00;97733.03;1699466;81;26178;-87
2022/08/20 04:48:06;;;;;;;;;;;;;;;21.67;100.00;97739.19;1694681;82;24549;-88
2022/08/20 04:50:34;;;;;;;;;;;;;;;21.67;100.00;97735.70;1713235;81;20607;-87
2022/08/20 04:53:04;;;;;;;;;;;;;;;21.65;100.00;97733.76;1704137;81;25023;-87
2022/08/20 04:55:30;;;;;;;;;;;;;;;21.62;100.00;97734.95;1714443;82;22171;-88
2022/08/20 04:57:58;;;;;;;;;;;;;;;21.62;100.00;97734.12;1717800;82;21034;-85
2022/08/20 05:00:24;;;;;;;;;;;;;;;21.61;100.00;97725.31;1702211;81;24482;-85
2022/08/20 05:02:50;;;;;;;;;;;;;;;21.62;100.00;97727.47;1717713;81;20354;-86
2022/08/20 05:05:16;;;;;;;;;;;;;;;21.62;100.00;97731.47;1707152;81;25135;-85
2022/08/20 05:07:44;;;;;;;;;;;;;;;21.59;100.00;97735.36;1709401;81;20823;-88
2022/08/20 05:10:12;;;;;;;;;;;;;;;21.62;100.00;97741.61;1680473;83;26012;-87
2022/08/20 05:12:39;;;;;;;;;;;;;;;21.69;100.00;97749.16;1668842;84;24470;-88
2022/08/20 05:15:06;;;;;;;;;;;;;;;21.73;100.00;97753.58;1632820;85;20363;-88
2022/08/20 05:17:32;;;;;;;;;;;;;;;21.70;100.00;97749.47;1633800;85;24984;-88
2022/08/20 05:19:59;;;;;;;;;;;;;;;21.70;100.00;97752.64;1637104;85;22007;-87
2022/08/20 05:22:26;;;;;;;;;;;;;;;21.78;100.00;97752.48;1636675;85;25991;-89
2022/08/20 05:24:52;;;;;;;;;;;;;;;21.81;100.00;97746.78;1646508;85;25134;-89
2022/08/20 05:27:19;;;;;;;;;;;;;;;21.74;100.00;97749.90;1670111;84;20599;-86
2022/08/20 05:29:45;;;;;;;;;;;;;;;21.63;100.00;97744.59;1662983;84;26528;-89
2022/08/20 05:32:11;;;;;;;;;;;;;;;21.64;100.00;97738.77;1699402;82;22070;-84
2022/08/20 05:34:37;;;;;;;;;;;;;;;21.66;100.00;97736.20;1707169;81;26079;-85
2022/08/20 05:37:03;;;;;;;;;;;;;;;21.62;100.00;97738.13;1684589;81;24392;-85
2022/08/20 05:39:29;;;;;;;;;;;;;;;21.65;100.00;97741.75;1708751;82;20287;-88
2022/08/20 05:41:55;;;;;;;;;;;;;;;21.78;100.00;97736.50;1709288;81;20784;-87
2022/08/20 05:44:25;;;;;;;;;;;;;;;21.84;100.00;97738.39;1692998;82;22053;-88
2022/08/20 05:46:51;;;;;;;;;;;;;;;21.84;100.00;97738.89;1705458;81;26013;-85
2022/08/20 05:49:18;;;;;;;;;;;;;;;21.84;100.00;97737.05;1714019;82;20352;-87
2022/08/20 05:51:44;;;;;;;;;;;;;;;21.83;100.00;97727.41;1721368;81;20334;-85
2022/08/20 05:54:11;;;;;;;;;;;;;;;21.93;100.00;97721.22;1712745;82;20697;-88
2022/08/20 05:56:38;;;;;;;;;;;;;;;22.11;100.00;97732.23;1707957;81;22092;-87
2022/08/20 05:59:05;;;;;;;;;;;;;;;22.25;100.00;97742.46;1707650;81;26152;-87
2022/08/20 06:01:32;;;;;;;;;;;;;;;22.42;100.00;97749.08;1695165;82;24403;-85
2022/08/20 06:06:47;;;;;;;;;;;;;;;22.68;100.00;97757.72;1706176;82;25046;-86
2022/08/20 06:09:15;;;;;;;;;;;;;;;22.79;100.00;97747.01;1715214;81;21985;-88
2022/08/20 06:11:47;;;;;;;;;;;;;;;22.89;100.00;97746.94;1727584;82;26910;-88
2022/08/20 06:14:15;;;;;;;;;;;;;;;22.99;100.00;97748.38;1716703;81;24657;-87
2022/08/20 06:16:41;;;;;;;;;;;;;;;23.12;100.00;97753.25;1707333;81;20228;-87
2022/08/20 06:19:07;;;;;;;;;;;;;;;23.22;100.00;97756.34;1699079;82;25245;-87
2022/08/20 06:21:32;;;;;;;;;;;;;;;23.27;100.00;97761.06;1689547;81;20938;-88
2022/08/20 06:23:58;;;;;;;;;;;;;;;23.32;100.00;97762.09;1714952;82;21088;-87
2022/08/20 06:26:25;;;;;;;;;;;;;;;23.34;100.00;97757.38;1695067;82;38593;-87
2022/08/20 06:28:54;;;;;;;;;;;;;;;23.34;100.00;97760.56;1694761;82;20553;-87
2022/08/20 06:31:27;;;;;;;;;;;;;;;23.31;100.00;97756.44;1690422;81;24971;-87
2022/08/20 06:33:53;;;;;;;;;;;;;;;23.33;100.00;97758.91;1694897;81;22242;-87
2022/08/20 06:36:19;;;;;;;;;;;;;;;23.43;100.00;97763.84;1720216;82;26074;-87
2022/08/20 06:38:45;;;;;;;;;;;;;;;23.51;100.00;97765.02;1710010;81;20302;-88
2022/08/20 06:41:11;;;;;;;;;;;;;;;23.49;100.00;97766.55;1722242;81;20407;-88
2022/08/20 06:43:37;;;;;;;;;;;;;;;23.50;100.00;97761.53;1713026;82;25754;-88
2022/08/20 06:46:05;;;;;;;;;;;;;;;23.52;100.00;97761.30;1704698;82;20268;-88
2022/08/20 06:48:30;;;;;;;;;;;;;;;23.52;100.00;97757.30;1713695;81;25982;-87
2022/08/20 06:50:56;;;;;;;;;;;;;;;23.52;100.00;97760.79;1683767;82;20242;-87
2022/08/20 06:53:24;;;;;;;;;;;;;;;23.52;100.00;97761.30;1682358;83;21271;-88
2022/08/20 06:55:51;;;;;;;;;;;;;;;23.52;100.00;97763.97;1675470;83;20764;-88
2022/08/20 06:58:21;;;;;;;;;;;;;;;23.58;100.00;97773.33;1678091;84;20434;-87
2022/08/20 07:00:47;;;;;;;;;;;;;;;23.62;100.00;97771.88;1667444;83;26026;-87
2022/08/20 07:03:14;;;;;;;;;;;;;;;23.67;100.00;97773.45;1670662;82;24534;-86
2022/08/20 07:05:41;;;;;;;;;;;;;;;23.72;100.00;97776.33;1666572;84;20422;-87
2022/08/20 07:08:12;;;;;;;;;;;;;;;23.71;100.00;97775.19;1672818;84;25050;-88
2022/08/20 07:10:42;;;;;;;;;;;;;;;23.63;100.00;97773.53;1663937;83;22926;-88
2022/08/20 07:13:15;;;;;;;;;;;;;;;23.54;100.00;97768.09;1630584;85;26809;-87
2022/08/20 07:15:42;;;;;;;;;;;;;;;23.51;100.00;97771.16;1663712;84;25265;-87
2022/08/20 07:18:11;;;;;;;;;;;;;;;23.51;100.00;97766.36;1635225;85;20301;-85
2022/08/20 07:20:39;;;;;;;;;;;;;;;23.52;100.00;97771.98;1649277;84;25799;-88
2022/08/20 07:23:06;;;;;;;;;;;;;;;23.60;100.00;97777.14;1722539;81;22011;-86
2022/08/20 07:25:32;;;;;;;;;;;;;;;23.73;100.00;97780.62;1712018;82;26745;-87
2022/08/20 07:28:00;;;;;;;;;;;;;;;23.87;100.00;97777.44;1684301;82;24576;-86
2022/08/20 07:33:13;;;;;;;;;;;;;;;24.07;100.00;97770.71;1702261;82;24993;-85
2022/08/20 07:35:39;;;;;;;;;;;;;;;24.10;100.00;97780.50;1691210;81;23712;-88
2022/08/20 07:38:05;;;;;;;;;;;;;;;24.19;100.00;97786.46;1677734;82;26804;-86
2022/08/20 07:40:32;;;;;;;;;;;;;;;24.26;100.00;97791.29;1675824;83;20262;-86
2022/08/20 07:42:59;;;;;;;;;;;;;;;24.34;100.00;97793.72;1690487;83;20266;-85
2022/08/20 07:45:26;;;;;;;;;;;;;;;24.41;100.00;97785.69;1689784;81;24996;-85
2022/08/20 07:47:52;;;;;;;;;;;;;;;24.38;100.00;97787.45;1698418;81;22751;-83
2022/08/20 07:50:20;;;;;;;;;;;;;;;24.41;100.00;97782.50;1721014;82;26013;-86
2022/08/20 07:52:46;;;;;;;;;;;;;;;24.49;100.00;97780.12;1697321;82;25186;-84
2022/08/20 07:55:14;;;;;;;;;;;;;;;24.52;100.00;97787.71;1682504;82;20250;-85
2022/08/20 07:57:40;;;;;;;;;;;;;;;24.56;100.00;97795.61;1683179;82;25114;-85
2022/08/20 08:00:08;;;;;;;;;;;;;;;24.59;100.00;97801.38;1711795;82;21966;-86
2022/08/20 08:02:35;;;;;;;;;;;;;;;24.67;100.00;97804.83;1715111;82;26236;-87
2022/08/20 08:05:03;;;;;;;;;;;;;;;24.71;100.00;97799.39;1718814;82;24486;-87
2022/08/20 08:07:29;;;;;;;;;;;;;;;24.72;100.00;97805.02;1702981;82;20228;-87
2022/08/20 08:09:56;;;;;;;;;;;;;;;24.71;100.00;97806.08;1714313;81;24947;-87
2022/08/20 08:12:24;;;;;;;;;;;;;;;24.72;100.00;97796.47;1707941;82;22069;-87
2022/08/20 08:14:50;;;;;;;;;;;;;;;24.74;100.00;97787.73;1695074;81;26059;-87
2022/08/20 08:17:16;;;;;;;;;;;;;;;24.71;100.00;97785.45;1706176;81;20324;-87
2022/08/20 08:19:44;;;;;;;;;;;;;;;24.77;100.00;97785.13;1689674;81;20294;-87
2022/08/20 08:22:11;;;;;;;;;;;;;;;24.83;100.00;97790.45;1720888;81;25049;-87
2022/08/20 08:24:46;;;;;;;;;;;;;;;24.82;100.00;97779.44;1704184;82;21962;-88
2022/08/20 08:27:12;;;;;;;;;;;;;;;24.88;100.00;97780.47;1703974;82;26007;-88
2022/08/20 08:29:39;;;;;;;;;;;;;;;24.90;100.00;97775.22;1687597;82;24429;-86
2022/08/20 08:32:07;;;;;;;;;;;;;;;24.93;100.00;97770.77;1716273;81;20257;-87
2022/08/20 08:34:34;;;;;;;;;;;;;;;24.97;100.00;97775.20;1715917;81;20349;-87
2022/08/20 08:37:04;;;;;;;;;;;;;;;25.02;100.00;97769.19;1671994;82;21814;-88
2022/08/20 08:39:36;;;;;;;;;;;;;;;24.98;100.00;97766.92;1696527;82;25973;-87
2022/08/20 08:42:03;;;;;;;;;;;;;;;25.01;100.00;97773.72;1689317;82;24683;-87
2022/08/20 08:44:39;;;;;;;;;;;;;;;25.13;100.00;97769.33;1686649;81;20234;-86
2022/08/20 08:47:12;;;;;;;;;;;;;;;25.27;100.00;97768.71;1693971;82;25179;-86
2022/08/20 08:49:37;;;;;;;;;;;;;;;25.41;100.00;97774.30;1692702;82;22083;-87
2022/08/20 08:52:08;;;;;;;;;;;;;;;25.53;100.00;97771.74;1708573;81;21066;-87
2022/08/20 08:54:34;;;;;;;;;;;;;;;25.62;100.00;97768.59;1717203;82;24377;-87
2022/08/20 08:57:00;;;;;;;;;;;;;;;25.70;100.00;97769.65;1712438;81;20259;-89
2022/08/20 08:59:30;;;;;;;;;;;;;;;25.72;100.00;97769.44;1708826;81;25079;-87
2022/08/20 09:02:01;;;;;;;;;;;;;;;25.77;100.00;97771.77;1707282;81;21982;-88
2022/08/20 09:04:30;;;;;;;;;;;;;;;25.87;100.00;97769.91;1720365;82;26116;-89
2022/08/20 09:06:57;;;;;;;11.48;4.08;;;;;;;25.95;100.00;97766.14;1688125;82;24424;-89
2022/08/20 09:09:27;;;;;;;10.38;3.58;;;;;;;25.86;100.00;97766.14;1690056;82;28104;-84
2022/08/20 09:11:56;;;;;;;9.63;3.75;;;;;;;25.79;100.00;97758.14;1709087;81;28175;-85
2022/08/20 09:14:25;;;;;;;11.85;3.60;;;;;;;25.90;100.00;97766.81;1696215;82;28121;-86
2022/08/20 09:16:52;;;;;;;10.82;4.20;;;;;;;25.98;100.00;97770.53;1697039;81;28186;-85
2022/08/20 09:19:19;;;;;;;13.28;4.35;;;;;;;26.08;100.00;97769.50;1692366;81;28185;-89
2022/08/20 09:21:45;;;;;;;9.70;3.95;;;;;;;26.05;100.00;97776.66;1677686;81;28063;-87
2022/08/20 09:24:16;;;;;;;12.75;4.83;;;;;;;26.00;100.00;97773.83;1699222;81;28073;-85
2022/08/20 09:26:42;;;;;;;6.67;3.75;;;;;;;26.09;100.00;97771.66;1710749;81;28171;-85
2022/08/20 09:29:09;;;;;;;12.78;4.12;;;;;;;26.22;100.00;97777.76;1698254;82;28086;-85
2022/08/20 09:31:35;;;;;;;7.10;3.40;;;;;;;26.24;100.00;97772.97;1707934;81;28014;-86
2022/08/20 09:34:01;;;;;;;9.73;3.87;;;;;;;26.18;100.00;97773.83;1706429;81;28187;-85
2022/08/20 09:36:27;;;;;;;11.08;3.90;;;;;;;26.10;100.00;97766.09;1703800;81;28082;-86
2022/08/20 09:38:53;;;;;;;9.13;4.35;;;;;;;26.07;100.00;97767.89;1706089;81;28088;-85
2022/08/20 09:41:21;;;;;;;9.90;3.80;;;;;;;26.03;100.00;97765.84;1700294;82;28021;-86
2022/08/20 09:43:52;;;;;;;7.53;4.35;;;;;;;26.02;100.00;97769.59;1690468;82;28116;-86
2022/08/20 09:46:15;;;;;;;12.47;5.62;;;;;;;26.11;100.00;97778.46;1688619;81;28138;-86
2022/08/20 09:48:43;;;;;;;9.35;4.60;;;;;;;26.26;100.00;97784.83;1698733;82;28103;-86
2022/08/20 09:51:17;;;;;;;12.43;4.60;;;;;;;26.45;100.00;97797.75;1679044;82;28150;-85
2022/08/20 09:53:45;;;;;;;9.88;3.90;;;;;;;26.54;100.00;97802.59;1681091;82;28065;-85
2022/08/20 09:56:12;;;;;;;7.28;4.20;;;;;;;26.56;100.00;97800.52;1685685;81;28105;-86
2022/08/20 09:58:50;;;;;;;8.30;4.53;;;;;;;26.58;100.00;97799.75;1676073;82;28101;-87
2022/08/20 10:01:20;;;;;;;8.78;4.85;;;;;;;26.60;100.00;97798.19;1664841;83;28129;-88
2022/08/20 10:03:49;;;;;;;9.95;4.40;;;;;;;26.63;100.00;97798.55;1670436;83;28188;-88
2022/08/20 10:06:18;;;;;;;8.63;4.20;;;;;;;26.65;100.00;97799.16;1693968;81;28224;-88
2022/08/20 10:08:44;;;;;;;11.22;4.20;;;;;;;26.65;100.00;97788.94;1707026;82;28104;-86
2022/08/20 10:11:11;;;;;;;8.15;3.83;;;;;;;26.68;100.00;97787.13;1713831;81;28097;-89
2022/08/20 10:13:40;;;;;;;10.75;4.30;;;;;;;26.72;100.00;97786.17;1688361;82;28035;-88
2022/08/20 10:16:06;;;;;;;8.15;4.35;;;;;;;26.74;100.00;97788.92;1708897;81;28204;-88
2022/08/20 10:18:35;;;;;;;6.37;3.62;;;;;;;26.76;100.00;97788.70;1689148;82;28088;-89
2022/08/20 10:21:01;;;;;;;12.28;4.97;;;;;;;26.74;100.00;97789.44;1715950;81;28074;-87
2022/08/20 10:23:27;;;;;;;10.10;5.00;;;;;;;26.69;100.00;97784.75;1702551;81;28161;-88
2022/08/20 10:25:53;;;;;;;5.92;3.75;;;;;;;26.68;100.00;97781.77;1700942;82;28041;-89
2022/08/20 10:28:23;;;;;;;10.48;3.65;;;;;;;26.66;100.00;97787.90;1706668;81;28208;-88
2022/08/20 10:30:49;;;;;;;7.60;4.03;;;;;;;26.68;100.00;97779.59;1693252;82;28237;-85
2022/08/20 10:33:15;;;;;;;8.88;4.10;;;;;;;26.71;100.00;97779.16;1701214;81;28016;-86
2022/08/20 10:35:41;;;;;;;9.25;4.67;;;;;;;26.70;100.00;97778.34;1705525;81;28160;-85
2022/08/20 10:38:07;;;;;;;9.00;3.75;;;;;;;26.69;100.00;97776.70;1712374;82;28040;-85
2022/08/20 10:40:33;;;;;;;9.28;4.47;;;;;;;26.66;100.00;97781.19;1679158;82;28193;-86
2022/08/20 10:42:59;;;;;;;12.13;4.03;;;;;;;26.61;100.00;97783.73;1693284;82;28048;-86
2022/08/20 10:45:25;;;;;;;10.38;4.80;;;;;;;26.51;100.00;97796.31;1698075;81;28144;-85
2022/08/20 10:47:51;;;;;;;12.23;5.22;;;;;;;26.45;100.00;97786.50;1703330;81;28576;-86
2022/08/20 10:50:18;;;;;;;11.35;4.50;;;;;;;26.44;100.00;97788.88;1712430;81;28494;-85
2022/08/20 10:52:45;;;;;;;9.25;3.65;;;;;;;26.44;100.00;97783.51;1702437;82;27987;-85
2022/08/20 10:55:11;;;;;;;12.28;4.37;;;;;;;26.33;100.00;97781.56;1712160;81;28121;-85
2022/08/20 10:57:42;;;;;;;8.60;3.70;;;;;;;26.18;100.00;97781.88;1653515;84;28119;-85
2022/08/20 11:00:09;;;;;;;;;;;;;;;26.04;100.00;97779.55;1665520;84;28234;-85
2022/08/20 11:02:36;;;;;;;8.50;4.05;;;;;;;25.94;100.00;97769.34;1681597;84;25737;-86
2022/08/20 11:05:02;;;;;;;9.15;4.00;;;;;;;26.01;100.00;97770.11;1661728;84;28151;-85
2022/08/20 11:07:32;;;;;;;8.45;3.77;;;;;;;26.09;100.00;97762.28;1621636;85;28153;-86
2022/08/20 11:10:00;;;;;;;11.68;4.12;;;;;;;26.08;100.00;97757.43;1688823;81;28170;-86
2022/08/20 11:12:26;;;;;;;13.58;4.20;;;;;;;26.00;100.00;97746.19;1703083;81;28086;-85
2022/08/20 11:14:54;;;;;;;9.60;4.30;;;;;;;25.89;100.00;97744.23;1716700;82;28094;-86
2022/08/20 11:17:22;;;;;;;6.67;4.00;;;;;;;25.78;100.00;97743.92;1714791;81;28122;-88
2022/08/20 11:19:49;;;;;;;7.40;5.00;;;;;;;25.71;100.00;97740.47;1709478;81;28115;-87
2022/08/20 11:22:15;;;;;;;8.23;4.33;;;;;;;25.83;100.00;97749.44;1704713;82;28098;-87
2022/08/20 11:24:50;;;;;;;9.13;4.50;;;;;;;26.00;100.00;97748.34;1711445;82;28065;-88
2022/08/20 11:27:26;;;;;;;8.38;4.35;;;;;;;26.13;100.00;97754.11;1703516;82;28173;-85
2022/08/20 11:29:53;;;;;;;8.85;4.83;;;;;;;26.22;100.00;97755.45;1705058;81;28131;-88
2022/08/20 11:32:20;;;;;;;10.85;4.37;;;;;;;26.29;100.00;97750.05;1710647;82;28515;-87
2022/08/20 11:34:47;;;;;;;8.58;5.65;;;;;;;26.34;100.00;97754.22;1706864;81;28173;-87
2022/08/20 11:37:17;;;;;;;8.83;3.80;;;;;;;26.26;100.00;97753.98;1671867;82;28072;-86
2022/08/20 11:39:59;;;;;;;10.60;4.95;;;;;;;26.19;100.00;97758.03;1716184;81;28309;-86
2022/08/20 11:42:26;;;;;;;8.05;4.22;;;;;;;26.14;100.00;97759.23;1709973;81;28222;-88
2022/08/20 11:44:52;;;;;;;13.35;4.95;;;;;;;26.18;100.00;97760.41;1688549;82;28082;-87
2022/08/20 11:47:27;;;;;;;9.68;4.47;;;;;;;26.24;100.00;97757.39;1722680;81;28191;-87
2022/08/20 11:49:58;;;;;;;9.73;4.12;;;;;;;26.35;100.00;97757.20;1697351;81;28198;-87
2022/08/20 11:52:27;;;;;;;10.88;4.60;;;;;;;26.42;100.00;97749.36;1681923;81;28172;-88
2022/08/20 11:54:55;;;;;;;9.15;4.17;;;;;;;26.39;100.00;97748.48;1689268;82;28100;-89
2022/08/20 11:57:25;;;;;;;10.55;4.33;;;;;;;26.21;100.00;97745.75;1707814;81;28156;-89
2022/08/20 11:59:52;;;;;;;7.15;3.98;;;;;;;26.05;100.00;97748.50;1701296;81;28103;-89
2022/08/20 12:02:18;;;;;;;10.32;4.75;;;;;;;25.96;100.00;97748.50;1693671;81;28138;-88
2022/08/20 12:04:46;;;;;;;9.85;4.50;;;;;;;25.92;100.00;97739.75;1694162;81;28185;-88
2022/08/20 12:07:16;;;;;;;11.12;4.60;;;;;;;25.99;100.00;97734.64;1665690;82;28075;-88
2022/08/20 12:09:46;;;;;;;10.18;4.90;;;;;;;26.16;100.00;97735.70;1690261;82;28001;-89
2022/08/20 12:12:12;;;;;;;10.05;4.78;;;;;;;26.28;100.00;97733.12;1705866;81;28080;-85
2022/08/20 12:14:38;;;;;;;11.55;4.78;;;;;;;26.42;100.00;97735.12;1701789;81;28097;-85
2022/08/20 12:17:20;;;;;;;11.40;5.20;;;;;;;26.58;100.00;97739.35;1704502;82;28076;-85
2022/08/20 12:19:46;;;;;;;13.05;5.60;;;;;;;26.67;100.00;97735.86;1683221;82;28175;-85
2022/08/20 12:22:12;;;;;;;11.08;5.30;;;;;;;26.73;100.00;97744.87;1696026;82;28138;-85
2022/08/20 12:24:39;;;;;;;15.65;5.75;;;;;;;26.74;100.00;97746.48;1679728;82;28023;-85
2022/08/20 12:27:12;;;;;;;12.50;5.05;;;;;;;26.73;100.00;97748.34;1691822;82;28240;-86
2022/08/20 12:29:39;;;;;;;14.58;5.20;;;;;;;26.67;100.00;97753.30;1703254;82;28112;-85